createdAt,value
2022-12-06T00:06:59.467Z,101155.09
2022-12-06T00:17:02.594Z,101148.28
2022-12-06T00:27:06.867Z,101137.00
2022-12-06T00:37:10.213Z,101137.25
2022-12-06T00:47:14.812Z,101146.72
2022-12-06T00:57:17.877Z,101137.53
2022-12-06T01:07:22.220Z,101128.88
2022-12-06T01:17:25.064Z,101129.72
2022-12-06T01:27:29.145Z,101122.97
2022-12-06T01:37:31.862Z,101130.72
2022-12-06T01:47:40.206Z,101129.78
2022-12-06T01:57:44.599Z,101132.84
2022-12-06T02:07:49.195Z,101117.06
2022-12-06T02:17:59.403Z,101117.94
2022-12-06T02:28:36.345Z,101111.59
2022-12-06T02:38:46.477Z,101097.38
2022-12-06T02:48:53.312Z,101090.56
2022-12-06T02:58:57.903Z,101096.72
2022-12-06T03:09:13.248Z,101095.13
2022-12-06T03:19:21.010Z,101104.63
2022-12-06T03:29:26.307Z,101095.31
2022-12-06T03:39:37.985Z,101088.56
2022-12-06T03:49:45.381Z,101086.75
2022-12-06T03:59:49.849Z,101083.41
2022-12-06T04:10:03.258Z,101080.81
2022-12-06T04:20:09.261Z,101078.91
2022-12-06T04:30:29.951Z,101080.50
2022-12-06T04:40:35.032Z,101081.50
2022-12-06T04:50:38.232Z,101085.78
2022-12-06T05:00:43.753Z,101079.81
2022-12-06T05:10:48.990Z,101081.56
2022-12-06T05:21:01.623Z,101071.56
2022-12-06T05:31:05.432Z,101074.94
2022-12-06T05:41:10.141Z,101089.34
2022-12-06T05:51:13.500Z,101086.94
2022-12-06T06:01:18.166Z,101079.16
2022-12-06T06:23:11.837Z,101083.50
2022-12-06T06:33:15.822Z,101088.78
2022-12-06T06:43:20.810Z,101080.41
2022-12-06T06:53:24.952Z,101081.13
2022-12-06T07:03:30.087Z,101078.75
2022-12-06T07:13:33.264Z,101082.91
2022-12-06T07:23:38.707Z,101078.69
2022-12-06T07:33:42.885Z,101080.50
2022-12-06T07:44:04.951Z,101078.75
2022-12-06T07:54:08.243Z,101087.31
2022-12-06T08:04:13.440Z,101080.41
2022-12-06T08:14:17.050Z,101089.97
2022-12-06T08:24:21.900Z,101097.44
2022-12-06T08:34:24.839Z,101109.44
2022-12-06T08:44:30.353Z,101107.25
2022-12-06T08:54:35.259Z,101109.75
2022-12-06T09:04:39.946Z,101108.78
2022-12-06T09:14:43.017Z,101120.78
2022-12-06T09:24:47.513Z,101119.13
2022-12-06T09:34:51.264Z,101128.50
2022-12-06T09:45:16.099Z,101137.03
2022-12-06T09:55:32.271Z,101139.78
2022-12-06T10:05:52.083Z,101140.59
2022-12-06T10:16:05.542Z,101130.44
2022-12-06T10:26:15.707Z,101129.56
2022-12-06T10:36:24.674Z,101116.81
2022-12-06T10:47:05.045Z,101094.13
2022-12-06T10:57:16.866Z,101098.97
2022-12-06T11:07:25.523Z,101090.59
2022-12-06T11:17:33.654Z,101086.41
2022-12-06T11:27:45.804Z,101084.69
2022-12-06T11:37:51.280Z,101083.84
2022-12-06T11:47:56.748Z,101074.44
2022-12-06T11:58:04.845Z,101077.91
2022-12-06T12:08:18.406Z,101075.38
2022-12-06T12:18:28.086Z,101077.97
2022-12-06T12:28:34.193Z,101074.56
2022-12-06T12:38:42.436Z,101065.97
2022-12-06T12:48:49.037Z,101063.63
2022-12-06T12:58:55.169Z,101051.66
2022-12-06T13:09:04.784Z,101054.97
2022-12-06T13:19:15.348Z,101052.44
2022-12-06T13:29:28.878Z,101058.41
2022-12-06T13:39:41.694Z,101056.69
2022-12-06T13:49:48.960Z,101047.31
2022-12-06T13:59:52.800Z,101033.69
2022-12-06T14:09:57.438Z,101040.53
2022-12-06T14:20:01.684Z,101039.66
2022-12-06T14:30:19.751Z,101042.25
2022-12-06T14:40:50.156Z,101043.94
2022-12-06T14:51:03.010Z,101044.81
2022-12-06T15:01:16.459Z,101049.06
2022-12-06T15:11:45.124Z,101051.66
2022-12-06T15:21:51.609Z,101054.22
2022-12-06T15:31:56.517Z,101058.44
2022-12-06T15:41:59.838Z,101051.59
2022-12-06T15:52:04.250Z,101043.84
2022-12-06T16:02:15.746Z,101045.56
2022-12-06T16:12:20.368Z,101043.88
2022-12-06T16:22:43.746Z,101048.16
2022-12-06T16:32:48.103Z,101042.09
2022-12-06T16:42:51.341Z,101043.81
2022-12-06T16:52:55.969Z,101035.31
2022-12-06T17:02:59.263Z,101037.84
2022-12-06T17:13:04.550Z,101045.53
2022-12-06T17:23:07.599Z,101042.94
2022-12-06T17:33:12.213Z,101044.66
2022-12-06T17:43:15.478Z,101041.28
2022-12-06T17:53:20.029Z,101048.06
2022-12-06T18:03:23.273Z,101034.44
2022-12-06T18:25:38.177Z,101024.16
2022-12-06T18:35:41.126Z,101023.25
2022-12-06T18:45:45.810Z,101026.69
2022-12-06T18:55:49.268Z,101028.34
2022-12-06T19:06:02.885Z,101024.97
2022-12-06T19:16:07.398Z,101023.22
2022-12-06T19:26:12.042Z,101018.19
2022-12-06T19:36:19.374Z,101010.56
2022-12-06T19:46:26.746Z,101021.59
2022-12-06T19:56:31.304Z,101013.06
2022-12-06T20:06:36.935Z,101019.03
2022-12-06T20:16:42.855Z,101014.84
2022-12-06T20:26:49.988Z,101010.56
2022-12-06T20:36:53.223Z,101015.69
2022-12-06T20:46:57.902Z,101008.91
2022-12-06T20:57:06.249Z,100998.66
2022-12-06T21:07:10.583Z,100985.97
2022-12-06T21:17:13.898Z,100974.84
2022-12-06T21:27:18.311Z,100985.94
2022-12-06T21:37:22.090Z,100979.09
2022-12-06T21:47:26.872Z,100972.31
2022-12-06T21:57:31.441Z,100969.75
2022-12-06T22:07:36.682Z,100975.75
2022-12-06T22:17:40.116Z,100978.25
2022-12-06T22:27:44.758Z,100980.81
2022-12-06T22:37:47.899Z,100976.53
2022-12-06T22:47:54.585Z,100975.72
2022-12-06T22:57:57.422Z,100963.72
2022-12-06T23:08:01.775Z,100962.84
2022-12-06T23:18:05.087Z,100956.91
2022-12-06T23:28:09.599Z,100949.25
2022-12-06T23:38:12.325Z,100955.22
2022-12-06T23:48:16.590Z,100950.97
2022-12-06T23:58:19.329Z,100937.41
